sensor_id;sensor_type;location;lat;lon;timestamp;temperature;humidity
45283;DHT22;31023;44.994;1.796;2023-03-23T00:01:24;14.20;73.50
45283;DHT22;31023;44.994;1.796;2023-03-23T00:03:53;14.20;73.80
45283;DHT22;31023;44.994;1.796;2023-03-23T00:06:24;14.20;74.00
45283;DHT22;31023;44.994;1.796;2023-03-23T00:08:51;14.20;74.10
45283;DHT22;31023;44.994;1.796;2023-03-23T00:11:24;14.10;74.60
45283;DHT22;31023;44.994;1.796;2023-03-23T00:13:52;14.10;74.80
45283;DHT22;31023;44.994;1.796;2023-03-23T00:16:20;14.10;75.00
45283;DHT22;31023;44.994;1.796;2023-03-23T00:18:57;14.10;75.10
45283;DHT22;31023;44.994;1.796;2023-03-23T00:21:34;14.00;75.30
45283;DHT22;31023;44.994;1.796;2023-03-23T00:24:11;14.00;75.40
45283;DHT22;31023;44.994;1.796;2023-03-23T00:26:39;14.00;75.80
45283;DHT22;31023;44.994;1.796;2023-03-23T00:29:20;14.00;75.50
45283;DHT22;31023;44.994;1.796;2023-03-23T00:31:47;14.10;74.80
45283;DHT22;31023;44.994;1.796;2023-03-23T00:34:16;14.30;73.60
45283;DHT22;31023;44.994;1.796;2023-03-23T00:36:50;14.30;72.50
45283;DHT22;31023;44.994;1.796;2023-03-23T00:39:17;14.60;71.20
45283;DHT22;31023;44.994;1.796;2023-03-23T00:41:43;14.60;69.70
45283;DHT22;31023;44.994;1.796;2023-03-23T00:44:09;14.50;70.00
45283;DHT22;31023;44.994;1.796;2023-03-23T00:46:35;14.40;71.00
45283;DHT22;31023;44.994;1.796;2023-03-23T00:49:12;14.10;73.40
45283;DHT22;31023;44.994;1.796;2023-03-23T00:51:40;14.00;74.30
45283;DHT22;31023;44.994;1.796;2023-03-23T00:54:06;14.10;72.50
45283;DHT22;31023;44.994;1.796;2023-03-23T00:56:32;14.10;71.20
45283;DHT22;31023;44.994;1.796;2023-03-23T00:58:57;14.10;71.10
45283;DHT22;31023;44.994;1.796;2023-03-23T01:01:23;14.10;71.00
45283;DHT22;31023;44.994;1.796;2023-03-23T01:03:49;14.20;70.60
45283;DHT22;31023;44.994;1.796;2023-03-23T01:06:15;14.10;71.20
45283;DHT22;31023;44.994;1.796;2023-03-23T01:08:41;14.20;71.20
45283;DHT22;31023;44.994;1.796;2023-03-23T01:11:13;14.20;71.10
45283;DHT22;31023;44.994;1.796;2023-03-23T01:13:39;14.10;71.00
45283;DHT22;31023;44.994;1.796;2023-03-23T01:16:06;14.00;73.20
45283;DHT22;31023;44.994;1.796;2023-03-23T01:18:32;14.00;72.50
45283;DHT22;31023;44.994;1.796;2023-03-23T01:20:57;14.00;71.40
45283;DHT22;31023;44.994;1.796;2023-03-23T01:23:23;14.10;70.80
45283;DHT22;31023;44.994;1.796;2023-03-23T01:25:49;14.20;70.00
45283;DHT22;31023;44.994;1.796;2023-03-23T01:28:15;14.30;69.50
45283;DHT22;31023;44.994;1.796;2023-03-23T01:30:41;14.20;69.50
45283;DHT22;31023;44.994;1.796;2023-03-23T01:33:07;14.20;69.30
45283;DHT22;31023;44.994;1.796;2023-03-23T01:35:33;14.10;69.50
45283;DHT22;31023;44.994;1.796;2023-03-23T01:37:58;14.10;69.60
45283;DHT22;31023;44.994;1.796;2023-03-23T01:40:26;13.80;70.20
45283;DHT22;31023;44.994;1.796;2023-03-23T01:42:52;13.80;70.30
45283;DHT22;31023;44.994;1.796;2023-03-23T01:45:32;13.90;70.10
45283;DHT22;31023;44.994;1.796;2023-03-23T01:48:14;13.80;70.30
45283;DHT22;31023;44.994;1.796;2023-03-23T01:53:23;13.70;70.70
45283;DHT22;31023;44.994;1.796;2023-03-23T01:55:52;13.60;70.50
45283;DHT22;31023;44.994;1.796;2023-03-23T01:58:22;13.70;70.60
45283;DHT22;31023;44.994;1.796;2023-03-23T02:00:52;13.70;70.60
45283;DHT22;31023;44.994;1.796;2023-03-23T02:03:19;13.70;70.70
45283;DHT22;31023;44.994;1.796;2023-03-23T02:05:45;13.90;70.40
45283;DHT22;31023;44.994;1.796;2023-03-23T02:08:12;14.10;70.30
45283;DHT22;31023;44.994;1.796;2023-03-23T02:10:39;14.00;71.00
45283;DHT22;31023;44.994;1.796;2023-03-23T02:13:07;14.00;70.80
45283;DHT22;31023;44.994;1.796;2023-03-23T02:26:53;14.00;73.20
45283;DHT22;31023;44.994;1.796;2023-03-23T02:30:09;13.80;75.00
45283;DHT22;31023;44.994;1.796;2023-03-23T02:34:54;13.60;76.20
45283;DHT22;31023;44.994;1.796;2023-03-23T02:37:46;13.60;76.30
45283;DHT22;31023;44.994;1.796;2023-03-23T02:40:24;13.70;76.10
45283;DHT22;31023;44.994;1.796;2023-03-23T02:42:53;13.80;75.40
45283;DHT22;31023;44.994;1.796;2023-03-23T02:45:21;13.90;74.90
45283;DHT22;31023;44.994;1.796;2023-03-23T02:47:50;13.90;74.40
45283;DHT22;31023;44.994;1.796;2023-03-23T02:50:18;14.00;74.20
45283;DHT22;31023;44.994;1.796;2023-03-23T02:52:46;14.00;74.10
45283;DHT22;31023;44.994;1.796;2023-03-23T02:55:13;14.00;74.40
45283;DHT22;31023;44.994;1.796;2023-03-23T02:57:41;14.00;74.40
45283;DHT22;31023;44.994;1.796;2023-03-23T03:00:13;14.00;74.50
45283;DHT22;31023;44.994;1.796;2023-03-23T03:02:43;14.00;74.20
45283;DHT22;31023;44.994;1.796;2023-03-23T03:10:37;13.90;75.30
45283;DHT22;31023;44.994;1.796;2023-03-23T03:19:06;13.70;76.00
45283;DHT22;31023;44.994;1.796;2023-03-23T03:21:38;13.80;75.90
45283;DHT22;31023;44.994;1.796;2023-03-23T03:24:05;13.70;76.10
45283;DHT22;31023;44.994;1.796;2023-03-23T03:26:41;13.70;76.20
45283;DHT22;31023;44.994;1.796;2023-03-23T03:29:11;13.70;76.10
45283;DHT22;31023;44.994;1.796;2023-03-23T03:31:39;13.50;77.60
45283;DHT22;31023;44.994;1.796;2023-03-23T03:34:13;13.40;78.30
45283;DHT22;31023;44.994;1.796;2023-03-23T03:36:46;13.50;78.20
45283;DHT22;31023;44.994;1.796;2023-03-23T03:39:14;13.40;78.20
45283;DHT22;31023;44.994;1.796;2023-03-23T03:41:41;13.40;78.20
45283;DHT22;31023;44.994;1.796;2023-03-23T03:44:08;13.40;78.90
45283;DHT22;31023;44.994;1.796;2023-03-23T03:46:35;13.40;78.80
45283;DHT22;31023;44.994;1.796;2023-03-23T03:49:03;13.40;78.40
45283;DHT22;31023;44.994;1.796;2023-03-23T03:51:30;13.50;78.30
45283;DHT22;31023;44.994;1.796;2023-03-23T03:53:56;13.50;78.10
45283;DHT22;31023;44.994;1.796;2023-03-23T03:56:23;13.50;78.80
45283;DHT22;31023;44.994;1.796;2023-03-23T03:58:49;13.60;77.10
45283;DHT22;31023;44.994;1.796;2023-03-23T04:01:16;13.70;77.40
45283;DHT22;31023;44.994;1.796;2023-03-23T04:03:43;13.70;76.90
45283;DHT22;31023;44.994;1.796;2023-03-23T04:06:10;13.70;77.10
45283;DHT22;31023;44.994;1.796;2023-03-23T04:08:38;13.50;78.30
45283;DHT22;31023;44.994;1.796;2023-03-23T04:11:04;13.50;78.80
45283;DHT22;31023;44.994;1.796;2023-03-23T04:13:31;13.40;79.80
45283;DHT22;31023;44.994;1.796;2023-03-23T04:15:57;13.30;80.60
45283;DHT22;31023;44.994;1.796;2023-03-23T04:18:22;13.20;81.10
45283;DHT22;31023;44.994;1.796;2023-03-23T04:20:50;13.10;81.50
45283;DHT22;31023;44.994;1.796;2023-03-23T04:23:17;13.10;81.80
45283;DHT22;31023;44.994;1.796;2023-03-23T04:25:49;13.00;82.60
45283;DHT22;31023;44.994;1.796;2023-03-23T04:28:17;13.00;82.80
45283;DHT22;31023;44.994;1.796;2023-03-23T04:30:44;13.10;82.30
45283;DHT22;31023;44.994;1.796;2023-03-23T04:33:11;13.10;81.80
45283;DHT22;31023;44.994;1.796;2023-03-23T04:35:42;13.30;80.10
45283;DHT22;31023;44.994;1.796;2023-03-23T04:38:11;13.30;80.30
45283;DHT22;31023;44.994;1.796;2023-03-23T04:40:38;13.30;79.90
45283;DHT22;31023;44.994;1.796;2023-03-23T04:43:04;13.30;79.30
45283;DHT22;31023;44.994;1.796;2023-03-23T04:45:31;13.30;79.70
45283;DHT22;31023;44.994;1.796;2023-03-23T04:47:57;13.30;79.10
45283;DHT22;31023;44.994;1.796;2023-03-23T04:50:27;13.30;78.60
45283;DHT22;31023;44.994;1.796;2023-03-23T04:52:53;13.50;77.50
45283;DHT22;31023;44.994;1.796;2023-03-23T04:55:22;13.40;76.90
45283;DHT22;31023;44.994;1.796;2023-03-23T04:57:47;13.50;75.40
45283;DHT22;31023;44.994;1.796;2023-03-23T05:00:13;13.60;74.90
45283;DHT22;31023;44.994;1.796;2023-03-23T05:02:43;13.50;75.30
45283;DHT22;31023;44.994;1.796;2023-03-23T05:05:11;13.50;74.40
45283;DHT22;31023;44.994;1.796;2023-03-23T05:07:39;13.50;74.20
45283;DHT22;31023;44.994;1.796;2023-03-23T05:10:06;13.60;73.80
45283;DHT22;31023;44.994;1.796;2023-03-23T05:12:33;13.60;73.30
45283;DHT22;31023;44.994;1.796;2023-03-23T05:14:59;13.60;72.80
45283;DHT22;31023;44.994;1.796;2023-03-23T05:17:25;13.70;72.50
45283;DHT22;31023;44.994;1.796;2023-03-23T05:19:51;13.70;72.00
45283;DHT22;31023;44.994;1.796;2023-03-23T05:22:18;13.70;71.90
45283;DHT22;31023;44.994;1.796;2023-03-23T05:24:48;13.60;72.50
45283;DHT22;31023;44.994;1.796;2023-03-23T05:27:18;13.50;72.50
45283;DHT22;31023;44.994;1.796;2023-03-23T05:29:45;13.50;72.90
45283;DHT22;31023;44.994;1.796;2023-03-23T05:32:14;13.50;72.40
45283;DHT22;31023;44.994;1.796;2023-03-23T05:34:40;13.50;73.00
45283;DHT22;31023;44.994;1.796;2023-03-23T05:37:09;13.40;73.70
45283;DHT22;31023;44.994;1.796;2023-03-23T05:39:35;13.40;74.10
45283;DHT22;31023;44.994;1.796;2023-03-23T05:42:02;13.40;74.10
45283;DHT22;31023;44.994;1.796;2023-03-23T05:44:28;13.50;73.80
45283;DHT22;31023;44.994;1.796;2023-03-23T05:46:54;13.50;72.90
45283;DHT22;31023;44.994;1.796;2023-03-23T05:49:20;13.50;73.20
45283;DHT22;31023;44.994;1.796;2023-03-23T05:51:46;13.50;72.90
45283;DHT22;31023;44.994;1.796;2023-03-23T05:54:13;13.40;73.50
45283;DHT22;31023;44.994;1.796;2023-03-23T05:56:39;13.40;73.60
45283;DHT22;31023;44.994;1.796;2023-03-23T05:59:05;13.50;73.30
45283;DHT22;31023;44.994;1.796;2023-03-23T06:01:32;13.50;72.50
45283;DHT22;31023;44.994;1.796;2023-03-23T06:03:58;13.40;73.20
45283;DHT22;31023;44.994;1.796;2023-03-23T06:06:28;13.30;74.60
45283;DHT22;31023;44.994;1.796;2023-03-23T06:08:58;13.40;73.50
45283;DHT22;31023;44.994;1.796;2023-03-23T06:11:25;13.40;73.30
45283;DHT22;31023;44.994;1.796;2023-03-23T06:13:52;13.50;73.60
45283;DHT22;31023;44.994;1.796;2023-03-23T06:16:18;13.40;73.40
45283;DHT22;31023;44.994;1.796;2023-03-23T06:18:45;13.50;72.20
45283;DHT22;31023;44.994;1.796;2023-03-23T06:21:11;13.50;71.70
45283;DHT22;31023;44.994;1.796;2023-03-23T06:23:37;13.60;71.50
45283;DHT22;31023;44.994;1.796;2023-03-23T06:26:07;13.70;70.80
45283;DHT22;31023;44.994;1.796;2023-03-23T06:28:33;13.60;72.60
45283;DHT22;31023;44.994;1.796;2023-03-23T06:31:04;13.60;71.30
45283;DHT22;31023;44.994;1.796;2023-03-23T06:33:33;13.60;72.10
45283;DHT22;31023;44.994;1.796;2023-03-23T06:35:59;13.60;71.10
45283;DHT22;31023;44.994;1.796;2023-03-23T06:38:25;13.70;71.00
45283;DHT22;31023;44.994;1.796;2023-03-23T06:40:55;13.70;72.00
45283;DHT22;31023;44.994;1.796;2023-03-23T06:43:22;13.70;73.10
45283;DHT22;31023;44.994;1.796;2023-03-23T06:45:48;13.70;73.20
45283;DHT22;31023;44.994;1.796;2023-03-23T06:48:14;13.70;73.50
45283;DHT22;31023;44.994;1.796;2023-03-23T06:50:45;13.70;74.40
45283;DHT22;31023;44.994;1.796;2023-03-23T06:53:11;13.60;76.60
45283;DHT22;31023;44.994;1.796;2023-03-23T06:55:37;13.60;75.80
45283;DHT22;31023;44.994;1.796;2023-03-23T06:58:04;13.70;75.10
45283;DHT22;31023;44.994;1.796;2023-03-23T07:00:32;13.70;73.20
45283;DHT22;31023;44.994;1.796;2023-03-23T07:02:57;13.60;74.90
45283;DHT22;31023;44.994;1.796;2023-03-23T07:05:23;13.50;76.40
45283;DHT22;31023;44.994;1.796;2023-03-23T07:07:50;13.40;77.10
45283;DHT22;31023;44.994;1.796;2023-03-23T07:10:16;13.30;79.90
45283;DHT22;31023;44.994;1.796;2023-03-23T07:12:42;13.40;78.00
45283;DHT22;31023;44.994;1.796;2023-03-23T07:15:08;13.50;77.80
45283;DHT22;31023;44.994;1.796;2023-03-23T07:17:36;13.60;78.40
45283;DHT22;31023;44.994;1.796;2023-03-23T07:20:03;13.60;77.90
45283;DHT22;31023;44.994;1.796;2023-03-23T07:22:30;13.70;76.80
45283;DHT22;31023;44.994;1.796;2023-03-23T07:24:56;13.70;77.80
45283;DHT22;31023;44.994;1.796;2023-03-23T07:27:22;13.60;79.60
45283;DHT22;31023;44.994;1.796;2023-03-23T07:29:47;13.50;79.70
45283;DHT22;31023;44.994;1.796;2023-03-23T07:32:13;13.60;80.10
45283;DHT22;31023;44.994;1.796;2023-03-23T07:34:39;13.80;79.90
45283;DHT22;31023;44.994;1.796;2023-03-23T07:37:06;13.90;78.70
45283;DHT22;31023;44.994;1.796;2023-03-23T07:39:32;13.70;80.30
45283;DHT22;31023;44.994;1.796;2023-03-23T07:41:58;13.60;83.50
45283;DHT22;31023;44.994;1.796;2023-03-23T07:44:24;13.80;82.20
45283;DHT22;31023;44.994;1.796;2023-03-23T07:46:50;14.10;82.30
45283;DHT22;31023;44.994;1.796;2023-03-23T07:49:16;14.50;79.80
45283;DHT22;31023;44.994;1.796;2023-03-23T07:51:42;14.80;80.00
45283;DHT22;31023;44.994;1.796;2023-03-23T07:54:08;14.80;83.50
45283;DHT22;31023;44.994;1.796;2023-03-23T07:56:35;14.70;83.70
45283;DHT22;31023;44.994;1.796;2023-03-23T07:59:01;14.70;83.00
45283;DHT22;31023;44.994;1.796;2023-03-23T08:01:28;15.10;80.80
45283;DHT22;31023;44.994;1.796;2023-03-23T08:03:54;15.20;80.80
45283;DHT22;31023;44.994;1.796;2023-03-23T08:06:26;15.30;80.10
45283;DHT22;31023;44.994;1.796;2023-03-23T08:08:52;14.90;76.90
45283;DHT22;31023;44.994;1.796;2023-03-23T08:11:19;14.80;75.60
45283;DHT22;31023;44.994;1.796;2023-03-23T08:13:47;14.90;74.60
45283;DHT22;31023;44.994;1.796;2023-03-23T08:16:13;14.90;74.10
45283;DHT22;31023;44.994;1.796;2023-03-23T08:18:39;14.60;75.10
45283;DHT22;31023;44.994;1.796;2023-03-23T08:21:06;14.50;75.60
45283;DHT22;31023;44.994;1.796;2023-03-23T08:23:34;14.80;75.20
45283;DHT22;31023;44.994;1.796;2023-03-23T08:26:00;15.70;76.70
45283;DHT22;31023;44.994;1.796;2023-03-23T08:28:26;20.00;71.20
45283;DHT22;31023;44.994;1.796;2023-03-23T08:30:52;18.90;69.90
45283;DHT22;31023;44.994;1.796;2023-03-23T08:33:18;18.10;71.00
45283;DHT22;31023;44.994;1.796;2023-03-23T08:35:44;18.40;71.20
45283;DHT22;31023;44.994;1.796;2023-03-23T08:38:11;20.80;69.30
45283;DHT22;31023;44.994;1.796;2023-03-23T08:40:37;22.30;64.60
45283;DHT22;31023;44.994;1.796;2023-03-23T08:43:04;22.70;63.60
45283;DHT22;31023;44.994;1.796;2023-03-23T08:45:30;21.80;59.20
45283;DHT22;31023;44.994;1.796;2023-03-23T08:47:56;23.20;57.10
45283;DHT22;31023;44.994;1.796;2023-03-23T08:50:25;21.70;59.00
45283;DHT22;31023;44.994;1.796;2023-03-23T08:52:52;21.60;59.40
45283;DHT22;31023;44.994;1.796;2023-03-23T08:55:18;20.30;58.00
45283;DHT22;31023;44.994;1.796;2023-03-23T08:57:44;20.60;59.10
45283;DHT22;31023;44.994;1.796;2023-03-23T09:00:14;19.80;59.00
45283;DHT22;31023;44.994;1.796;2023-03-23T09:02:48;21.90;56.70
45283;DHT22;31023;44.994;1.796;2023-03-23T09:05:17;21.80;56.60
45283;DHT22;31023;44.994;1.796;2023-03-23T09:07:48;22.30;55.00
45283;DHT22;31023;44.994;1.796;2023-03-23T09:10:15;21.80;56.00
45283;DHT22;31023;44.994;1.796;2023-03-23T09:12:42;20.50;55.50
45283;DHT22;31023;44.994;1.796;2023-03-23T09:15:08;19.30;60.20
45283;DHT22;31023;44.994;1.796;2023-03-23T09:17:43;19.70;59.60
45283;DHT22;31023;44.994;1.796;2023-03-23T09:20:12;19.10;59.30
45283;DHT22;31023;44.994;1.796;2023-03-23T09:22:40;18.70;59.50
45283;DHT22;31023;44.994;1.796;2023-03-23T09:25:07;18.30;60.20
45283;DHT22;31023;44.994;1.796;2023-03-23T09:27:34;18.60;60.50
45283;DHT22;31023;44.994;1.796;2023-03-23T09:30:04;18.00;61.20
45283;DHT22;31023;44.994;1.796;2023-03-23T09:32:33;18.10;62.30
45283;DHT22;31023;44.994;1.796;2023-03-23T09:35:01;18.20;62.00
45283;DHT22;31023;44.994;1.796;2023-03-23T09:37:27;18.40;62.50
45283;DHT22;31023;44.994;1.796;2023-03-23T09:39:53;18.70;63.10
45283;DHT22;31023;44.994;1.796;2023-03-23T09:50:18;20.90;59.20
45283;DHT22;31023;44.994;1.796;2023-03-23T09:52:56;20.70;61.30
45283;DHT22;31023;44.994;1.796;2023-03-23T09:55:22;20.40;62.30
45283;DHT22;31023;44.994;1.796;2023-03-23T09:58:18;20.00;61.30
45283;DHT22;31023;44.994;1.796;2023-03-23T10:01:02;19.60;62.70
45283;DHT22;31023;44.994;1.796;2023-03-23T10:03:37;19.90;61.10
45283;DHT22;31023;44.994;1.796;2023-03-23T10:06:05;19.70;61.60
45283;DHT22;31023;44.994;1.796;2023-03-23T10:08:33;20.00;60.90
45283;DHT22;31023;44.994;1.796;2023-03-23T10:16:37;20.30;61.60
45283;DHT22;31023;44.994;1.796;2023-03-23T10:19:18;20.40;61.60
45283;DHT22;31023;44.994;1.796;2023-03-23T10:21:51;20.20;61.40
45283;DHT22;31023;44.994;1.796;2023-03-23T10:24:27;20.00;62.20
45283;DHT22;31023;44.994;1.796;2023-03-23T10:29:34;19.60;62.60
45283;DHT22;31023;44.994;1.796;2023-03-23T10:32:03;19.70;64.90
45283;DHT22;31023;44.994;1.796;2023-03-23T10:34:57;20.00;65.30
45283;DHT22;31023;44.994;1.796;2023-03-23T10:37:28;20.20;63.60
45283;DHT22;31023;44.994;1.796;2023-03-23T10:40:00;20.80;63.50
45283;DHT22;31023;44.994;1.796;2023-03-23T10:42:34;21.60;64.30
45283;DHT22;31023;44.994;1.796;2023-03-23T10:45:19;21.50;63.50
45283;DHT22;31023;44.994;1.796;2023-03-23T10:47:52;21.50;66.90
45283;DHT22;31023;44.994;1.796;2023-03-23T10:50:23;21.30;66.50
45283;DHT22;31023;44.994;1.796;2023-03-23T10:52:52;21.00;64.90
45283;DHT22;31023;44.994;1.796;2023-03-23T10:55:23;21.50;65.90
45283;DHT22;31023;44.994;1.796;2023-03-23T10:58:23;21.90;62.50
45283;DHT22;31023;44.994;1.796;2023-03-23T11:00:49;21.80;65.60
45283;DHT22;31023;44.994;1.796;2023-03-23T11:05:47;21.30;61.30
45283;DHT22;31023;44.994;1.796;2023-03-23T11:08:19;21.00;63.80
45283;DHT22;31023;44.994;1.796;2023-03-23T11:10:54;20.80;63.60
45283;DHT22;31023;44.994;1.796;2023-03-23T11:13:22;21.30;63.70
45283;DHT22;31023;44.994;1.796;2023-03-23T11:15:50;21.30;61.70
45283;DHT22;31023;44.994;1.796;2023-03-23T11:20:54;21.40;62.50
45283;DHT22;31023;44.994;1.796;2023-03-23T11:28:30;20.60;60.70
45283;DHT22;31023;44.994;1.796;2023-03-23T11:30:59;20.60;60.90
45283;DHT22;31023;44.994;1.796;2023-03-23T11:33:30;20.70;61.30
45283;DHT22;31023;44.994;1.796;2023-03-23T11:35:56;20.80;60.90
45283;DHT22;31023;44.994;1.796;2023-03-23T11:38:24;20.80;61.60
45283;DHT22;31023;44.994;1.796;2023-03-23T11:40:53;20.70;63.60
45283;DHT22;31023;44.994;1.796;2023-03-23T11:43:22;20.80;62.40
45283;DHT22;31023;44.994;1.796;2023-03-23T11:46:05;20.70;60.30
45283;DHT22;31023;44.994;1.796;2023-03-23T11:48:45;20.50;62.10
45283;DHT22;31023;44.994;1.796;2023-03-23T11:51:41;20.80;62.00
45283;DHT22;31023;44.994;1.796;2023-03-23T11:56:47;21.30;61.40
45283;DHT22;31023;44.994;1.796;2023-03-23T11:59:19;21.30;61.30
45283;DHT22;31023;44.994;1.796;2023-03-23T12:01:56;21.40;60.70
45283;DHT22;31023;44.994;1.796;2023-03-23T12:20:17;20.90;63.90
45283;DHT22;31023;44.994;1.796;2023-03-23T12:25:36;21.30;63.00
45283;DHT22;31023;44.994;1.796;2023-03-23T12:28:06;20.90;61.60
45283;DHT22;31023;44.994;1.796;2023-03-23T12:54:35;21.10;60.30
45283;DHT22;31023;44.994;1.796;2023-03-23T12:57:13;21.40;58.10
45283;DHT22;31023;44.994;1.796;2023-03-23T13:08:12;21.10;60.40
45283;DHT22;31023;44.994;1.796;2023-03-23T13:10:45;21.30;58.00
45283;DHT22;31023;44.994;1.796;2023-03-23T13:13:26;21.10;55.80
45283;DHT22;31023;44.994;1.796;2023-03-23T13:16:08;20.90;56.60
45283;DHT22;31023;44.994;1.796;2023-03-23T13:21:25;20.90;56.50
45283;DHT22;31023;44.994;1.796;2023-03-23T13:24:05;20.80;54.90
45283;DHT22;31023;44.994;1.796;2023-03-23T13:26:37;20.80;56.30
45283;DHT22;31023;44.994;1.796;2023-03-23T13:29:17;20.80;54.80
45283;DHT22;31023;44.994;1.796;2023-03-23T13:31:46;20.90;55.70
45283;DHT22;31023;44.994;1.796;2023-03-23T13:34:17;20.70;55.70
45283;DHT22;31023;44.994;1.796;2023-03-23T13:37:05;20.80;56.60
45283;DHT22;31023;44.994;1.796;2023-03-23T13:47:35;21.10;58.10
45283;DHT22;31023;44.994;1.796;2023-03-23T13:50:05;21.20;58.90
45283;DHT22;31023;44.994;1.796;2023-03-23T14:03:05;21.10;55.90
45283;DHT22;31023;44.994;1.796;2023-03-23T14:05:38;21.20;56.40
45283;DHT22;31023;44.994;1.796;2023-03-23T14:16:14;21.00;57.30
45283;DHT22;31023;44.994;1.796;2023-03-23T14:18:46;20.80;57.90
45283;DHT22;31023;44.994;1.796;2023-03-23T14:21:16;20.70;56.40
45283;DHT22;31023;44.994;1.796;2023-03-23T14:23:43;20.70;58.30
45283;DHT22;31023;44.994;1.796;2023-03-23T14:26:17;20.80;58.10
45283;DHT22;31023;44.994;1.796;2023-03-23T14:28:45;20.70;59.10
45283;DHT22;31023;44.994;1.796;2023-03-23T14:31:21;20.60;59.00
45283;DHT22;31023;44.994;1.796;2023-03-23T14:33:48;20.60;60.00
45283;DHT22;31023;44.994;1.796;2023-03-23T14:36:26;20.60;59.60
45283;DHT22;31023;44.994;1.796;2023-03-23T14:41:36;20.60;60.80
45283;DHT22;31023;44.994;1.796;2023-03-23T14:44:05;20.70;60.40
45283;DHT22;31023;44.994;1.796;2023-03-23T14:46:32;20.70;61.00
45283;DHT22;31023;44.994;1.796;2023-03-23T14:49:07;20.70;60.00
45283;DHT22;31023;44.994;1.796;2023-03-23T14:51:33;20.60;60.10
45283;DHT22;31023;44.994;1.796;2023-03-23T14:53:59;20.70;60.30
45283;DHT22;31023;44.994;1.796;2023-03-23T14:56:35;20.70;60.70
45283;DHT22;31023;44.994;1.796;2023-03-23T14:59:06;21.00;59.40
45283;DHT22;31023;44.994;1.796;2023-03-23T15:01:35;21.10;60.10
45283;DHT22;31023;44.994;1.796;2023-03-23T15:04:06;21.10;58.90
45283;DHT22;31023;44.994;1.796;2023-03-23T15:06:35;21.00;59.20
45283;DHT22;31023;44.994;1.796;2023-03-23T15:09:05;21.00;58.90
45283;DHT22;31023;44.994;1.796;2023-03-23T15:11:34;20.90;59.10
45283;DHT22;31023;44.994;1.796;2023-03-23T15:14:31;20.80;60.10
45283;DHT22;31023;44.994;1.796;2023-03-23T15:16:59;20.50;58.50
45283;DHT22;31023;44.994;1.796;2023-03-23T15:19:30;20.50;57.20
45283;DHT22;31023;44.994;1.796;2023-03-23T15:22:04;20.50;57.90
45283;DHT22;31023;44.994;1.796;2023-03-23T15:24:34;20.40;58.40
45283;DHT22;31023;44.994;1.796;2023-03-23T15:29:50;20.50;58.20
45283;DHT22;31023;44.994;1.796;2023-03-23T15:32:30;20.60;57.70
45283;DHT22;31023;44.994;1.796;2023-03-23T15:34:57;20.60;57.80
45283;DHT22;31023;44.994;1.796;2023-03-23T15:37:30;20.50;58.40
45283;DHT22;31023;44.994;1.796;2023-03-23T15:39:57;20.30;59.60
45283;DHT22;31023;44.994;1.796;2023-03-23T15:42:28;20.20;59.40
45283;DHT22;31023;44.994;1.796;2023-03-23T15:50:13;20.10;61.20
45283;DHT22;31023;44.994;1.796;2023-03-23T15:52:40;20.10;61.00
45283;DHT22;31023;44.994;1.796;2023-03-23T15:55:28;20.00;60.50
45283;DHT22;31023;44.994;1.796;2023-03-23T15:57:56;20.00;59.50
45283;DHT22;31023;44.994;1.796;2023-03-23T16:00:24;20.00;59.80
45283;DHT22;31023;44.994;1.796;2023-03-23T16:03:07;20.00;61.40
45283;DHT22;31023;44.994;1.796;2023-03-23T16:05:34;20.00;61.30
45283;DHT22;31023;44.994;1.796;2023-03-23T16:08:00;19.90;61.00
45283;DHT22;31023;44.994;1.796;2023-03-23T16:10:27;19.90;61.10
45283;DHT22;31023;44.994;1.796;2023-03-23T16:12:53;19.80;61.80
45283;DHT22;31023;44.994;1.796;2023-03-23T16:15:18;19.70;61.80
45283;DHT22;31023;44.994;1.796;2023-03-23T16:17:44;19.60;62.90
45283;DHT22;31023;44.994;1.796;2023-03-23T16:22:40;19.50;62.30
45283;DHT22;31023;44.994;1.796;2023-03-23T16:25:07;19.50;61.70
45283;DHT22;31023;44.994;1.796;2023-03-23T16:27:33;19.50;61.80
45283;DHT22;31023;44.994;1.796;2023-03-23T16:29:59;19.50;61.80
45283;DHT22;31023;44.994;1.796;2023-03-23T16:32:27;19.50;61.80
45283;DHT22;31023;44.994;1.796;2023-03-23T16:34:53;19.60;63.00
45283;DHT22;31023;44.994;1.796;2023-03-23T16:37:19;19.70;62.80
45283;DHT22;31023;44.994;1.796;2023-03-23T16:39:45;19.60;63.30
45283;DHT22;31023;44.994;1.796;2023-03-23T16:42:11;19.50;62.90
45283;DHT22;31023;44.994;1.796;2023-03-23T16:44:36;19.50;63.00
45283;DHT22;31023;44.994;1.796;2023-03-23T16:47:02;19.50;64.10
45283;DHT22;31023;44.994;1.796;2023-03-23T16:49:28;19.40;63.80
45283;DHT22;31023;44.994;1.796;2023-03-23T16:51:53;19.20;63.30
45283;DHT22;31023;44.994;1.796;2023-03-23T16:54:19;19.20;64.20
45283;DHT22;31023;44.994;1.796;2023-03-23T16:56:45;19.20;64.50
45283;DHT22;31023;44.994;1.796;2023-03-23T16:59:13;19.20;63.50
45283;DHT22;31023;44.994;1.796;2023-03-23T17:01:39;19.20;64.70
45283;DHT22;31023;44.994;1.796;2023-03-23T17:04:06;19.10;63.60
45283;DHT22;31023;44.994;1.796;2023-03-23T17:06:31;19.10;64.60
45283;DHT22;31023;44.994;1.796;2023-03-23T17:08:57;19.20;64.40
45283;DHT22;31023;44.994;1.796;2023-03-23T17:11:23;19.10;64.80
45283;DHT22;31023;44.994;1.796;2023-03-23T17:13:49;19.00;65.10
45283;DHT22;31023;44.994;1.796;2023-03-23T17:16:17;19.00;64.40
45283;DHT22;31023;44.994;1.796;2023-03-23T17:18:42;19.00;64.90
45283;DHT22;31023;44.994;1.796;2023-03-23T17:21:08;18.90;65.00
45283;DHT22;31023;44.994;1.796;2023-03-23T17:23:34;18.90;66.00
45283;DHT22;31023;44.994;1.796;2023-03-23T17:26:00;18.90;65.40
45283;DHT22;31023;44.994;1.796;2023-03-23T17:28:26;18.90;66.90
45283;DHT22;31023;44.994;1.796;2023-03-23T17:30:51;19.00;66.50
45283;DHT22;31023;44.994;1.796;2023-03-23T17:33:17;18.90;67.80
45283;DHT22;31023;44.994;1.796;2023-03-23T17:35:45;18.80;67.80
45283;DHT22;31023;44.994;1.796;2023-03-23T17:38:11;18.80;67.30
45283;DHT22;31023;44.994;1.796;2023-03-23T17:40:37;18.70;67.50
45283;DHT22;31023;44.994;1.796;2023-03-23T17:46:25;18.60;68.80
45283;DHT22;31023;44.994;1.796;2023-03-23T17:48:51;18.50;67.80
45283;DHT22;31023;44.994;1.796;2023-03-23T17:51:17;18.40;68.20
45283;DHT22;31023;44.994;1.796;2023-03-23T17:53:43;18.30;67.40
45283;DHT22;31023;44.994;1.796;2023-03-23T17:56:10;18.40;67.60
45283;DHT22;31023;44.994;1.796;2023-03-23T17:58:36;18.40;67.10
45283;DHT22;31023;44.994;1.796;2023-03-23T18:01:02;18.30;68.00
45283;DHT22;31023;44.994;1.796;2023-03-23T18:03:28;18.30;67.90
45283;DHT22;31023;44.994;1.796;2023-03-23T18:05:59;18.40;67.00
45283;DHT22;31023;44.994;1.796;2023-03-23T18:08:26;18.30;67.60
45283;DHT22;31023;44.994;1.796;2023-03-23T18:10:54;18.30;68.50
45283;DHT22;31023;44.994;1.796;2023-03-23T18:13:21;18.20;68.90
45283;DHT22;31023;44.994;1.796;2023-03-23T18:15:48;18.30;68.70